sensor_id;sensor_type;location;lat;lon;timestamp;P1;durP1;ratioP1;P2;durP2;ratioP2
11135;SDS011;5622;50.840;4.948;2022-08-19T00:01:47;17.57;;;15.67;;
11135;SDS011;5622;50.840;4.948;2022-08-19T00:04:16;18.43;;;16.30;;
11135;SDS011;5622;50.840;4.948;2022-08-19T00:06:45;21.23;;;17.03;;
11135;SDS011;5622;50.840;4.948;2022-08-19T00:09:14;18.97;;;16.97;;
11135;SDS011;5622;50.840;4.948;2022-08-19T00:11:45;20.83;;;18.17;;
11135;SDS011;5622;50.840;4.948;2022-08-19T00:14:14;22.57;;;20.17;;
11135;SDS011;5622;50.840;4.948;2022-08-19T00:16:42;22.80;;;20.57;;
11135;SDS011;5622;50.840;4.948;2022-08-19T00:19:11;23.33;;;19.93;;
11135;SDS011;5622;50.840;4.948;2022-08-19T00:21:38;21.03;;;18.83;;
11135;SDS011;5622;50.840;4.948;2022-08-19T00:24:06;22.87;;;20.43;;
11135;SDS011;5622;50.840;4.948;2022-08-19T00:26:34;23.83;;;21.43;;
11135;SDS011;5622;50.840;4.948;2022-08-19T00:29:04;24.03;;;21.43;;
11135;SDS011;5622;50.840;4.948;2022-08-19T00:31:32;22.37;;;20.10;;
11135;SDS011;5622;50.840;4.948;2022-08-19T00:34:00;22.90;;;20.43;;
11135;SDS011;5622;50.840;4.948;2022-08-19T00:36:28;23.53;;;21.00;;
11135;SDS011;5622;50.840;4.948;2022-08-19T00:38:56;23.93;;;21.33;;
11135;SDS011;5622;50.840;4.948;2022-08-19T00:41:24;22.60;;;20.30;;
11135;SDS011;5622;50.840;4.948;2022-08-19T00:44:02;24.20;;;21.50;;
11135;SDS011;5622;50.840;4.948;2022-08-19T00:46:33;22.73;;;20.30;;
11135;SDS011;5622;50.840;4.948;2022-08-19T00:49:02;23.77;;;21.27;;
11135;SDS011;5622;50.840;4.948;2022-08-19T00:51:34;22.50;;;20.00;;
11135;SDS011;5622;50.840;4.948;2022-08-19T00:54:02;24.57;;;20.30;;
11135;SDS011;5622;50.840;4.948;2022-08-19T00:56:30;24.83;;;21.67;;
11135;SDS011;5622;50.840;4.948;2022-08-19T00:58:59;25.53;;;22.83;;
11135;SDS011;5622;50.840;4.948;2022-08-19T01:01:29;26.63;;;23.17;;
11135;SDS011;5622;50.840;4.948;2022-08-19T01:03:56;25.13;;;22.40;;
11135;SDS011;5622;50.840;4.948;2022-08-19T01:06:23;25.17;;;21.50;;
11135;SDS011;5622;50.840;4.948;2022-08-19T01:08:50;25.60;;;21.90;;
11135;SDS011;5622;50.840;4.948;2022-08-19T01:11:17;25.27;;;22.40;;
11135;SDS011;5622;50.840;4.948;2022-08-19T01:13:44;24.50;;;21.93;;
11135;SDS011;5622;50.840;4.948;2022-08-19T01:16:12;26.33;;;22.53;;
11135;SDS011;5622;50.840;4.948;2022-08-19T01:18:42;26.93;;;22.87;;
11135;SDS011;5622;50.840;4.948;2022-08-19T01:21:10;26.67;;;22.77;;
11135;SDS011;5622;50.840;4.948;2022-08-19T01:23:44;24.70;;;20.63;;
11135;SDS011;5622;50.840;4.948;2022-08-19T01:26:13;27.60;;;23.07;;
11135;SDS011;5622;50.840;4.948;2022-08-19T01:28:43;25.77;;;21.43;;
11135;SDS011;5622;50.840;4.948;2022-08-19T01:31:12;26.30;;;22.63;;
11135;SDS011;5622;50.840;4.948;2022-08-19T01:33:41;24.70;;;21.97;;
11135;SDS011;5622;50.840;4.948;2022-08-19T01:36:09;25.07;;;21.60;;
11135;SDS011;5622;50.840;4.948;2022-08-19T01:38:40;25.10;;;21.07;;
11135;SDS011;5622;50.840;4.948;2022-08-19T01:41:11;24.33;;;20.47;;
11135;SDS011;5622;50.840;4.948;2022-08-19T01:43:38;25.87;;;22.03;;
11135;SDS011;5622;50.840;4.948;2022-08-19T01:46:06;27.43;;;23.50;;
11135;SDS011;5622;50.840;4.948;2022-08-19T01:48:34;27.30;;;23.00;;
11135;SDS011;5622;50.840;4.948;2022-08-19T01:51:02;27.77;;;22.37;;
11135;SDS011;5622;50.840;4.948;2022-08-19T01:53:30;32.03;;;23.40;;
11135;SDS011;5622;50.840;4.948;2022-08-19T01:55:58;27.67;;;22.67;;
11135;SDS011;5622;50.840;4.948;2022-08-19T01:58:28;28.67;;;22.07;;
11135;SDS011;5622;50.840;4.948;2022-08-19T02:00:58;30.70;;;23.23;;
11135;SDS011;5622;50.840;4.948;2022-08-19T02:03:25;27.13;;;22.07;;
11135;SDS011;5622;50.840;4.948;2022-08-19T02:05:56;31.40;;;24.70;;
11135;SDS011;5622;50.840;4.948;2022-08-19T02:08:25;33.27;;;26.47;;
11135;SDS011;5622;50.840;4.948;2022-08-19T02:10:52;35.23;;;26.10;;
11135;SDS011;5622;50.840;4.948;2022-08-19T02:13:19;32.07;;;25.13;;
11135;SDS011;5622;50.840;4.948;2022-08-19T02:15:48;35.47;;;25.97;;
11135;SDS011;5622;50.840;4.948;2022-08-19T02:18:15;32.63;;;26.20;;
11135;SDS011;5622;50.840;4.948;2022-08-19T02:20:42;32.93;;;25.10;;
11135;SDS011;5622;50.840;4.948;2022-08-19T02:23:12;31.07;;;24.33;;
11135;SDS011;5622;50.840;4.948;2022-08-19T02:25:40;34.57;;;25.50;;
11135;SDS011;5622;50.840;4.948;2022-08-19T02:28:07;36.77;;;26.33;;
11135;SDS011;5622;50.840;4.948;2022-08-19T02:30:34;31.53;;;24.50;;
11135;SDS011;5622;50.840;4.948;2022-08-19T02:33:03;33.90;;;26.07;;
11135;SDS011;5622;50.840;4.948;2022-08-19T02:35:30;36.00;;;26.73;;
11135;SDS011;5622;50.840;4.948;2022-08-19T02:37:58;37.50;;;26.77;;
11135;SDS011;5622;50.840;4.948;2022-08-19T02:40:47;38.50;;;28.87;;
11135;SDS011;5622;50.840;4.948;2022-08-19T02:43:16;38.07;;;28.27;;
11135;SDS011;5622;50.840;4.948;2022-08-19T02:45:45;39.13;;;28.30;;
11135;SDS011;5622;50.840;4.948;2022-08-19T02:48:14;37.30;;;28.23;;
11135;SDS011;5622;50.840;4.948;2022-08-19T02:50:43;37.63;;;27.43;;
11135;SDS011;5622;50.840;4.948;2022-08-19T02:53:11;40.10;;;28.27;;
11135;SDS011;5622;50.840;4.948;2022-08-19T02:55:42;41.47;;;30.60;;
11135;SDS011;5622;50.840;4.948;2022-08-19T03:00:56;40.37;;;28.43;;
11135;SDS011;5622;50.840;4.948;2022-08-19T03:03:25;39.40;;;28.27;;
11135;SDS011;5622;50.840;4.948;2022-08-19T03:06:02;43.50;;;29.30;;
11135;SDS011;5622;50.840;4.948;2022-08-19T03:08:30;42.93;;;30.13;;
11135;SDS011;5622;50.840;4.948;2022-08-19T03:10:59;40.37;;;29.63;;
11135;SDS011;5622;50.840;4.948;2022-08-19T03:13:26;41.97;;;29.17;;
11135;SDS011;5622;50.840;4.948;2022-08-19T03:15:53;47.37;;;31.83;;
11135;SDS011;5622;50.840;4.948;2022-08-19T03:18:20;45.07;;;31.00;;
11135;SDS011;5622;50.840;4.948;2022-08-19T03:20:49;44.03;;;30.20;;
11135;SDS011;5622;50.840;4.948;2022-08-19T03:23:19;44.70;;;31.20;;
11135;SDS011;5622;50.840;4.948;2022-08-19T03:25:47;48.00;;;30.47;;
11135;SDS011;5622;50.840;4.948;2022-08-19T03:28:16;44.40;;;30.53;;
11135;SDS011;5622;50.840;4.948;2022-08-19T03:30:54;42.33;;;28.90;;
11135;SDS011;5622;50.840;4.948;2022-08-19T03:33:27;52.13;;;32.60;;
11135;SDS011;5622;50.840;4.948;2022-08-19T03:38:46;49.63;;;32.80;;
11135;SDS011;5622;50.840;4.948;2022-08-19T03:41:17;45.97;;;30.57;;
11135;SDS011;5622;50.840;4.948;2022-08-19T03:43:46;49.87;;;32.63;;
11135;SDS011;5622;50.840;4.948;2022-08-19T03:46:15;46.60;;;31.10;;
11135;SDS011;5622;50.840;4.948;2022-08-19T03:48:45;43.47;;;31.23;;
11135;SDS011;5622;50.840;4.948;2022-08-19T03:51:19;44.43;;;30.90;;
11135;SDS011;5622;50.840;4.948;2022-08-19T03:53:49;39.57;;;29.13;;
11135;SDS011;5622;50.840;4.948;2022-08-19T03:59:24;42.93;;;29.73;;
11135;SDS011;5622;50.840;4.948;2022-08-19T04:01:53;41.50;;;28.63;;
11135;SDS011;5622;50.840;4.948;2022-08-19T04:04:21;42.83;;;29.43;;
11135;SDS011;5622;50.840;4.948;2022-08-19T04:06:51;34.77;;;24.57;;
11135;SDS011;5622;50.840;4.948;2022-08-19T04:09:18;41.47;;;28.17;;
11135;SDS011;5622;50.840;4.948;2022-08-19T04:11:47;39.20;;;27.73;;
11135;SDS011;5622;50.840;4.948;2022-08-19T04:14:19;35.83;;;25.83;;
11135;SDS011;5622;50.840;4.948;2022-08-19T04:16:48;37.23;;;26.23;;
11135;SDS011;5622;50.840;4.948;2022-08-19T04:19:16;37.53;;;25.77;;
11135;SDS011;5622;50.840;4.948;2022-08-19T04:21:45;33.57;;;25.10;;
11135;SDS011;5622;50.840;4.948;2022-08-19T04:24:15;35.10;;;25.53;;
11135;SDS011;5622;50.840;4.948;2022-08-19T04:26:43;37.20;;;26.33;;
11135;SDS011;5622;50.840;4.948;2022-08-19T04:29:12;35.53;;;26.37;;
11135;SDS011;5622;50.840;4.948;2022-08-19T04:31:41;36.13;;;26.20;;
11135;SDS011;5622;50.840;4.948;2022-08-19T04:34:10;36.43;;;25.03;;
11135;SDS011;5622;50.840;4.948;2022-08-19T04:36:40;35.10;;;24.43;;
11135;SDS011;5622;50.840;4.948;2022-08-19T04:39:10;36.30;;;25.57;;
11135;SDS011;5622;50.840;4.948;2022-08-19T04:41:40;34.77;;;25.87;;
11135;SDS011;5622;50.840;4.948;2022-08-19T04:44:24;35.03;;;25.20;;
11135;SDS011;5622;50.840;4.948;2022-08-19T04:46:55;36.97;;;26.20;;
11135;SDS011;5622;50.840;4.948;2022-08-19T04:49:23;35.07;;;25.73;;
11135;SDS011;5622;50.840;4.948;2022-08-19T04:51:52;32.43;;;24.33;;
11135;SDS011;5622;50.840;4.948;2022-08-19T04:54:20;34.20;;;24.30;;
11135;SDS011;5622;50.840;4.948;2022-08-19T04:56:52;35.70;;;25.10;;
11135;SDS011;5622;50.840;4.948;2022-08-19T04:59:19;32.77;;;24.13;;
11135;SDS011;5622;50.840;4.948;2022-08-19T05:01:48;33.33;;;24.80;;
11135;SDS011;5622;50.840;4.948;2022-08-19T05:04:15;36.43;;;24.20;;
11135;SDS011;5622;50.840;4.948;2022-08-19T05:06:44;34.53;;;24.80;;
11135;SDS011;5622;50.840;4.948;2022-08-19T05:09:12;32.63;;;23.93;;
11135;SDS011;5622;50.840;4.948;2022-08-19T05:11:41;33.93;;;25.00;;
11135;SDS011;5622;50.840;4.948;2022-08-19T05:14:10;32.47;;;23.93;;
11135;SDS011;5622;50.840;4.948;2022-08-19T05:16:38;34.07;;;24.80;;
11135;SDS011;5622;50.840;4.948;2022-08-19T05:19:06;36.70;;;24.43;;
11135;SDS011;5622;50.840;4.948;2022-08-19T05:21:50;32.63;;;23.10;;
11135;SDS011;5622;50.840;4.948;2022-08-19T05:24:35;33.57;;;23.03;;
11135;SDS011;5622;50.840;4.948;2022-08-19T05:27:03;37.50;;;25.07;;
11135;SDS011;5622;50.840;4.948;2022-08-19T05:29:32;33.47;;;23.17;;
11135;SDS011;5622;50.840;4.948;2022-08-19T05:32:01;33.93;;;22.80;;
11135;SDS011;5622;50.840;4.948;2022-08-19T05:34:30;33.67;;;23.90;;
11135;SDS011;5622;50.840;4.948;2022-08-19T05:36:58;36.77;;;24.10;;
11135;SDS011;5622;50.840;4.948;2022-08-19T05:39:28;34.13;;;23.60;;
11135;SDS011;5622;50.840;4.948;2022-08-19T05:41:57;33.53;;;23.07;;
11135;SDS011;5622;50.840;4.948;2022-08-19T05:44:29;32.27;;;21.27;;
11135;SDS011;5622;50.840;4.948;2022-08-19T05:46:59;35.67;;;24.23;;
11135;SDS011;5622;50.840;4.948;2022-08-19T05:49:28;33.67;;;23.73;;
11135;SDS011;5622;50.840;4.948;2022-08-19T05:51:57;37.20;;;24.13;;
11135;SDS011;5622;50.840;4.948;2022-08-19T05:54:24;33.57;;;22.87;;
11135;SDS011;5622;50.840;4.948;2022-08-19T05:56:52;36.20;;;23.70;;
11135;SDS011;5622;50.840;4.948;2022-08-19T05:59:20;37.03;;;23.87;;
11135;SDS011;5622;50.840;4.948;2022-08-19T06:01:49;32.97;;;22.33;;
11135;SDS011;5622;50.840;4.948;2022-08-19T06:04:21;32.30;;;22.20;;
11135;SDS011;5622;50.840;4.948;2022-08-19T06:06:49;34.43;;;22.00;;
11135;SDS011;5622;50.840;4.948;2022-08-19T06:09:18;33.17;;;22.70;;
11135;SDS011;5622;50.840;4.948;2022-08-19T06:11:47;35.73;;;23.20;;
11135;SDS011;5622;50.840;4.948;2022-08-19T06:14:19;36.23;;;23.77;;
11135;SDS011;5622;50.840;4.948;2022-08-19T06:16:48;33.53;;;22.00;;
11135;SDS011;5622;50.840;4.948;2022-08-19T06:19:17;37.37;;;25.43;;
11135;SDS011;5622;50.840;4.948;2022-08-19T06:21:48;33.47;;;23.17;;
11135;SDS011;5622;50.840;4.948;2022-08-19T06:24:17;38.40;;;23.50;;
11135;SDS011;5622;50.840;4.948;2022-08-19T06:26:48;36.87;;;22.90;;
11135;SDS011;5622;50.840;4.948;2022-08-19T06:29:16;41.03;;;25.47;;
11135;SDS011;5622;50.840;4.948;2022-08-19T06:31:46;33.47;;;22.73;;
11135;SDS011;5622;50.840;4.948;2022-08-19T06:34:15;39.17;;;24.80;;
11135;SDS011;5622;50.840;4.948;2022-08-19T06:36:44;37.70;;;23.87;;
11135;SDS011;5622;50.840;4.948;2022-08-19T06:39:14;35.53;;;22.97;;
11135;SDS011;5622;50.840;4.948;2022-08-19T06:41:47;34.97;;;22.80;;
11135;SDS011;5622;50.840;4.948;2022-08-19T06:44:17;33.07;;;22.37;;
11135;SDS011;5622;50.840;4.948;2022-08-19T06:46:45;34.03;;;21.67;;
11135;SDS011;5622;50.840;4.948;2022-08-19T06:49:13;30.20;;;20.43;;
11135;SDS011;5622;50.840;4.948;2022-08-19T06:51:41;32.93;;;20.20;;
11135;SDS011;5622;50.840;4.948;2022-08-19T06:54:10;29.67;;;20.17;;
11135;SDS011;5622;50.840;4.948;2022-08-19T06:56:38;26.67;;;18.33;;
11135;SDS011;5622;50.840;4.948;2022-08-19T06:59:06;26.00;;;17.67;;
11135;SDS011;5622;50.840;4.948;2022-08-19T07:01:35;26.53;;;18.70;;
11135;SDS011;5622;50.840;4.948;2022-08-19T07:04:04;21.33;;;15.27;;
11135;SDS011;5622;50.840;4.948;2022-08-19T07:06:32;22.87;;;15.17;;
11135;SDS011;5622;50.840;4.948;2022-08-19T07:08:59;19.60;;;14.00;;
11135;SDS011;5622;50.840;4.948;2022-08-19T07:11:27;18.20;;;12.33;;
11135;SDS011;5622;50.840;4.948;2022-08-19T07:13:56;16.03;;;11.63;;
11135;SDS011;5622;50.840;4.948;2022-08-19T07:16:23;13.77;;;10.80;;
11135;SDS011;5622;50.840;4.948;2022-08-19T07:18:52;15.10;;;10.30;;
11135;SDS011;5622;50.840;4.948;2022-08-19T07:21:21;17.53;;;11.03;;
11135;SDS011;5622;50.840;4.948;2022-08-19T07:23:53;15.77;;;11.87;;
11135;SDS011;5622;50.840;4.948;2022-08-19T07:26:22;17.00;;;12.53;;
11135;SDS011;5622;50.840;4.948;2022-08-19T07:28:51;15.30;;;11.27;;
11135;SDS011;5622;50.840;4.948;2022-08-19T07:31:21;19.20;;;12.07;;
11135;SDS011;5622;50.840;4.948;2022-08-19T07:33:50;18.40;;;11.77;;
11135;SDS011;5622;50.840;4.948;2022-08-19T07:36:21;14.10;;;10.77;;
11135;SDS011;5622;50.840;4.948;2022-08-19T07:38:50;15.97;;;10.07;;
11135;SDS011;5622;50.840;4.948;2022-08-19T07:41:20;15.83;;;10.67;;
11135;SDS011;5622;50.840;4.948;2022-08-19T07:43:49;18.40;;;11.80;;
11135;SDS011;5622;50.840;4.948;2022-08-19T07:46:16;16.37;;;10.63;;
11135;SDS011;5622;50.840;4.948;2022-08-19T07:48:47;17.47;;;11.50;;
11135;SDS011;5622;50.840;4.948;2022-08-19T07:51:16;12.07;;;9.53;;
11135;SDS011;5622;50.840;4.948;2022-08-19T07:53:45;13.13;;;9.43;;
11135;SDS011;5622;50.840;4.948;2022-08-19T07:56:13;12.17;;;8.80;;
11135;SDS011;5622;50.840;4.948;2022-08-19T07:58:42;12.47;;;9.20;;
11135;SDS011;5622;50.840;4.948;2022-08-19T08:01:11;15.27;;;8.90;;
11135;SDS011;5622;50.840;4.948;2022-08-19T08:03:40;13.03;;;8.73;;
11135;SDS011;5622;50.840;4.948;2022-08-19T08:06:28;11.63;;;9.33;;
11135;SDS011;5622;50.840;4.948;2022-08-19T08:09:14;12.50;;;8.70;;
11135;SDS011;5622;50.840;4.948;2022-08-19T08:11:47;15.00;;;9.43;;
11135;SDS011;5622;50.840;4.948;2022-08-19T08:14:17;11.37;;;9.10;;
11135;SDS011;5622;50.840;4.948;2022-08-19T08:16:48;14.63;;;10.30;;
11135;SDS011;5622;50.840;4.948;2022-08-19T08:19:16;15.03;;;11.10;;
11135;SDS011;5622;50.840;4.948;2022-08-19T08:21:46;11.93;;;8.57;;
11135;SDS011;5622;50.840;4.948;2022-08-19T08:24:14;12.17;;;8.83;;
11135;SDS011;5622;50.840;4.948;2022-08-19T08:26:41;13.23;;;8.23;;
11135;SDS011;5622;50.840;4.948;2022-08-19T08:29:10;12.47;;;9.00;;
11135;SDS011;5622;50.840;4.948;2022-08-19T08:31:38;13.57;;;8.67;;
11135;SDS011;5622;50.840;4.948;2022-08-19T08:34:06;12.43;;;8.23;;
11135;SDS011;5622;50.840;4.948;2022-08-19T08:36:35;11.00;;;8.47;;
11135;SDS011;5622;50.840;4.948;2022-08-19T08:39:07;14.47;;;9.47;;
11135;SDS011;5622;50.840;4.948;2022-08-19T08:41:37;14.70;;;9.10;;
11135;SDS011;5622;50.840;4.948;2022-08-19T08:44:13;12.30;;;8.03;;
11135;SDS011;5622;50.840;4.948;2022-08-19T08:46:47;9.37;;;7.17;;
11135;SDS011;5622;50.840;4.948;2022-08-19T08:49:20;10.57;;;7.23;;
11135;SDS011;5622;50.840;4.948;2022-08-19T08:51:56;10.70;;;7.67;;
11135;SDS011;5622;50.840;4.948;2022-08-19T08:54:30;7.67;;;5.20;;
11135;SDS011;5622;50.840;4.948;2022-08-19T08:57:02;7.27;;;5.00;;
11135;SDS011;5622;50.840;4.948;2022-08-19T08:59:34;5.97;;;4.70;;
11135;SDS011;5622;50.840;4.948;2022-08-19T09:02:03;5.63;;;4.70;;
11135;SDS011;5622;50.840;4.948;2022-08-19T09:04:31;5.77;;;4.27;;
11135;SDS011;5622;50.840;4.948;2022-08-19T09:07:01;7.60;;;4.90;;
11135;SDS011;5622;50.840;4.948;2022-08-19T09:09:43;6.47;;;4.00;;
11135;SDS011;5622;50.840;4.948;2022-08-19T09:12:15;8.10;;;5.70;;
11135;SDS011;5622;50.840;4.948;2022-08-19T09:14:49;8.43;;;6.10;;
11135;SDS011;5622;50.840;4.948;2022-08-19T09:17:20;5.83;;;4.10;;
11135;SDS011;5622;50.840;4.948;2022-08-19T09:19:56;5.37;;;4.50;;
11135;SDS011;5622;50.840;4.948;2022-08-19T09:22:30;9.07;;;5.70;;
11135;SDS011;5622;50.840;4.948;2022-08-19T09:24:59;7.20;;;5.10;;
11135;SDS011;5622;50.840;4.948;2022-08-19T09:27:26;7.80;;;5.40;;
11135;SDS011;5622;50.840;4.948;2022-08-19T09:29:54;9.53;;;6.53;;
11135;SDS011;5622;50.840;4.948;2022-08-19T09:32:22;9.40;;;5.30;;
11135;SDS011;5622;50.840;4.948;2022-08-19T09:34:50;8.80;;;5.50;;
11135;SDS011;5622;50.840;4.948;2022-08-19T09:37:19;5.07;;;4.57;;
11135;SDS011;5622;50.840;4.948;2022-08-19T09:39:47;7.20;;;6.10;;
11135;SDS011;5622;50.840;4.948;2022-08-19T09:42:15;9.03;;;6.77;;
11135;SDS011;5622;50.840;4.948;2022-08-19T09:44:43;6.70;;;5.60;;
11135;SDS011;5622;50.840;4.948;2022-08-19T09:47:11;9.17;;;5.27;;
11135;SDS011;5622;50.840;4.948;2022-08-19T09:49:39;6.70;;;4.80;;
11135;SDS011;5622;50.840;4.948;2022-08-19T09:52:08;4.73;;;4.30;;
11135;SDS011;5622;50.840;4.948;2022-08-19T09:54:36;4.87;;;4.43;;
11135;SDS011;5622;50.840;4.948;2022-08-19T09:57:04;9.13;;;5.77;;
11135;SDS011;5622;50.840;4.948;2022-08-19T09:59:33;7.93;;;4.90;;
11135;SDS011;5622;50.840;4.948;2022-08-19T10:02:00;5.87;;;5.30;;
11135;SDS011;5622;50.840;4.948;2022-08-19T10:04:27;6.10;;;5.00;;
11135;SDS011;5622;50.840;4.948;2022-08-19T10:07:08;5.83;;;4.80;;
11135;SDS011;5622;50.840;4.948;2022-08-19T10:09:35;5.43;;;4.93;;
11135;SDS011;5622;50.840;4.948;2022-08-19T10:12:03;6.73;;;5.10;;
11135;SDS011;5622;50.840;4.948;2022-08-19T10:14:31;8.50;;;5.97;;
11135;SDS011;5622;50.840;4.948;2022-08-19T10:17:00;7.90;;;5.67;;
11135;SDS011;5622;50.840;4.948;2022-08-19T10:19:27;5.63;;;4.87;;
11135;SDS011;5622;50.840;4.948;2022-08-19T10:22:02;6.97;;;5.03;;
11135;SDS011;5622;50.840;4.948;2022-08-19T10:24:32;6.00;;;5.30;;
11135;SDS011;5622;50.840;4.948;2022-08-19T10:26:59;7.43;;;5.60;;
11135;SDS011;5622;50.840;4.948;2022-08-19T10:29:28;7.80;;;5.57;;
11135;SDS011;5622;50.840;4.948;2022-08-19T10:31:58;6.03;;;5.23;;
11135;SDS011;5622;50.840;4.948;2022-08-19T10:34:28;5.23;;;4.73;;
11135;SDS011;5622;50.840;4.948;2022-08-19T10:36:56;6.80;;;4.43;;
11135;SDS011;5622;50.840;4.948;2022-08-19T10:39:24;6.70;;;6.00;;
11135;SDS011;5622;50.840;4.948;2022-08-19T10:41:53;7.83;;;5.33;;
11135;SDS011;5622;50.840;4.948;2022-08-19T10:44:21;6.43;;;4.10;;
11135;SDS011;5622;50.840;4.948;2022-08-19T10:46:49;6.73;;;4.40;;
11135;SDS011;5622;50.840;4.948;2022-08-19T10:49:18;6.80;;;4.87;;
11135;SDS011;5622;50.840;4.948;2022-08-19T10:51:45;6.40;;;4.83;;
11135;SDS011;5622;50.840;4.948;2022-08-19T10:54:30;6.57;;;4.87;;
11135;SDS011;5622;50.840;4.948;2022-08-19T10:57:13;6.97;;;4.50;;
11135;SDS011;5622;50.840;4.948;2022-08-19T10:59:40;5.30;;;4.07;;
11135;SDS011;5622;50.840;4.948;2022-08-19T11:02:08;5.57;;;4.30;;
11135;SDS011;5622;50.840;4.948;2022-08-19T11:04:39;5.17;;;4.10;;
11135;SDS011;5622;50.840;4.948;2022-08-19T11:07:07;5.87;;;3.63;;
11135;SDS011;5622;50.840;4.948;2022-08-19T11:09:36;6.03;;;3.40;;
11135;SDS011;5622;50.840;4.948;2022-08-19T11:12:05;4.97;;;3.47;;
11135;SDS011;5622;50.840;4.948;2022-08-19T11:14:34;5.50;;;4.00;;
11135;SDS011;5622;50.840;4.948;2022-08-19T11:17:02;5.67;;;4.60;;
11135;SDS011;5622;50.840;4.948;2022-08-19T11:19:31;5.10;;;4.30;;
11135;SDS011;5622;50.840;4.948;2022-08-19T11:22:02;5.17;;;4.30;;
11135;SDS011;5622;50.840;4.948;2022-08-19T11:24:29;5.63;;;4.80;;
11135;SDS011;5622;50.840;4.948;2022-08-19T11:27:01;7.73;;;5.13;;
11135;SDS011;5622;50.840;4.948;2022-08-19T11:29:32;4.87;;;4.30;;
11135;SDS011;5622;50.840;4.948;2022-08-19T11:31:59;8.57;;;4.90;;
11135;SDS011;5622;50.840;4.948;2022-08-19T11:34:29;5.40;;;4.37;;
11135;SDS011;5622;50.840;4.948;2022-08-19T11:36:57;5.27;;;4.77;;
11135;SDS011;5622;50.840;4.948;2022-08-19T11:39:27;5.73;;;4.30;;
11135;SDS011;5622;50.840;4.948;2022-08-19T11:41:55;4.60;;;4.17;;
11135;SDS011;5622;50.840;4.948;2022-08-19T11:44:24;5.27;;;3.77;;
11135;SDS011;5622;50.840;4.948;2022-08-19T11:46:51;3.50;;;3.20;;
11135;SDS011;5622;50.840;4.948;2022-08-19T11:49:19;3.53;;;3.23;;
11135;SDS011;5622;50.840;4.948;2022-08-19T11:51:46;3.53;;;3.20;;
11135;SDS011;5622;50.840;4.948;2022-08-19T11:54:15;5.27;;;3.60;;
11135;SDS011;5622;50.840;4.948;2022-08-19T11:56:44;5.30;;;3.73;;
11135;SDS011;5622;50.840;4.948;2022-08-19T11:59:14;4.00;;;3.17;;
11135;SDS011;5622;50.840;4.948;2022-08-19T12:01:41;3.13;;;2.63;;
11135;SDS011;5622;50.840;4.948;2022-08-19T12:04:09;4.13;;;3.20;;
11135;SDS011;5622;50.840;4.948;2022-08-19T12:06:37;5.33;;;3.40;;
11135;SDS011;5622;50.840;4.948;2022-08-19T12:09:07;7.07;;;3.57;;
11135;SDS011;5622;50.840;4.948;2022-08-19T12:11:35;5.80;;;3.30;;
11135;SDS011;5622;50.840;4.948;2022-08-19T12:14:05;4.90;;;3.40;;
11135;SDS011;5622;50.840;4.948;2022-08-19T12:16:33;5.97;;;3.60;;
11135;SDS011;5622;50.840;4.948;2022-08-19T12:19:00;3.97;;;3.33;;
11135;SDS011;5622;50.840;4.948;2022-08-19T12:21:30;4.20;;;3.03;;
11135;SDS011;5622;50.840;4.948;2022-08-19T12:24:00;5.43;;;3.20;;
11135;SDS011;5622;50.840;4.948;2022-08-19T12:26:29;3.37;;;3.07;;
11135;SDS011;5622;50.840;4.948;2022-08-19T12:28:57;5.13;;;3.00;;
11135;SDS011;5622;50.840;4.948;2022-08-19T12:31:26;5.43;;;3.70;;
11135;SDS011;5622;50.840;4.948;2022-08-19T12:33:54;5.80;;;3.80;;
11135;SDS011;5622;50.840;4.948;2022-08-19T12:36:22;3.93;;;3.27;;
11135;SDS011;5622;50.840;4.948;2022-08-19T12:38:50;4.83;;;3.67;;
11135;SDS011;5622;50.840;4.948;2022-08-19T12:41:18;5.07;;;3.90;;
11135;SDS011;5622;50.840;4.948;2022-08-19T12:43:47;4.87;;;3.50;;
11135;SDS011;5622;50.840;4.948;2022-08-19T12:46:15;6.50;;;4.13;;
11135;SDS011;5622;50.840;4.948;2022-08-19T12:48:44;6.10;;;3.90;;
11135;SDS011;5622;50.840;4.948;2022-08-19T12:51:12;4.93;;;4.13;;
11135;SDS011;5622;50.840;4.948;2022-08-19T12:53:41;5.30;;;4.80;;
11135;SDS011;5622;50.840;4.948;2022-08-19T12:56:09;6.70;;;4.83;;
11135;SDS011;5622;50.840;4.948;2022-08-19T12:58:39;5.77;;;4.70;;
11135;SDS011;5622;50.840;4.948;2022-08-19T13:01:07;8.47;;;5.40;;
11135;SDS011;5622;50.840;4.948;2022-08-19T13:03:36;5.50;;;4.90;;
11135;SDS011;5622;50.840;4.948;2022-08-19T13:06:06;4.80;;;4.30;;
11135;SDS011;5622;50.840;4.948;2022-08-19T13:08:34;7.07;;;4.80;;
11135;SDS011;5622;50.840;4.948;2022-08-19T13:11:09;5.80;;;4.50;;
11135;SDS011;5622;50.840;4.948;2022-08-19T13:13:38;5.00;;;4.33;;
11135;SDS011;5622;50.840;4.948;2022-08-19T13:16:07;4.87;;;4.30;;
11135;SDS011;5622;50.840;4.948;2022-08-19T13:18:34;5.03;;;4.47;;
11135;SDS011;5622;50.840;4.948;2022-08-19T13:21:02;6.13;;;4.73;;
11135;SDS011;5622;50.840;4.948;2022-08-19T13:23:32;4.87;;;4.43;;
11135;SDS011;5622;50.840;4.948;2022-08-19T13:26:01;6.47;;;4.57;;
11135;SDS011;5622;50.840;4.948;2022-08-19T13:28:30;4.57;;;4.17;;
11135;SDS011;5622;50.840;4.948;2022-08-19T13:31:17;4.47;;;4.03;;
11135;SDS011;5622;50.840;4.948;2022-08-19T13:34:03;5.03;;;4.47;;
11135;SDS011;5622;50.840;4.948;2022-08-19T13:36:31;5.03;;;4.40;;
11135;SDS011;5622;50.840;4.948;2022-08-19T13:39:00;5.60;;;4.10;;
11135;SDS011;5622;50.840;4.948;2022-08-19T13:41:28;5.37;;;4.20;;
11135;SDS011;5622;50.840;4.948;2022-08-19T13:43:55;6.43;;;4.10;;
11135;SDS011;5622;50.840;4.948;2022-08-19T13:46:22;4.10;;;3.70;;
11135;SDS011;5622;50.840;4.948;2022-08-19T13:48:49;3.90;;;3.40;;
11135;SDS011;5622;50.840;4.948;2022-08-19T13:51:17;4.90;;;3.90;;
11135;SDS011;5622;50.840;4.948;2022-08-19T13:53:44;5.10;;;3.93;;
11135;SDS011;5622;50.840;4.948;2022-08-19T13:56:13;4.23;;;3.60;;
11135;SDS011;5622;50.840;4.948;2022-08-19T13:58:42;6.10;;;4.07;;
11135;SDS011;5622;50.840;4.948;2022-08-19T14:01:10;5.67;;;4.07;;
11135;SDS011;5622;50.840;4.948;2022-08-19T14:03:37;4.07;;;3.47;;
11135;SDS011;5622;50.840;4.948;2022-08-19T14:06:05;5.43;;;3.17;;
11135;SDS011;5622;50.840;4.948;2022-08-19T14:08:32;3.80;;;3.50;;
11135;SDS011;5622;50.840;4.948;2022-08-19T14:10:59;3.50;;;3.20;;
11135;SDS011;5622;50.840;4.948;2022-08-19T14:13:27;3.73;;;3.33;;
11135;SDS011;5622;50.840;4.948;2022-08-19T14:15:55;7.90;;;4.20;;
11135;SDS011;5622;50.840;4.948;2022-08-19T14:18:23;4.60;;;4.10;;
11135;SDS011;5622;50.840;4.948;2022-08-19T14:20:50;6.07;;;3.67;;
11135;SDS011;5622;50.840;4.948;2022-08-19T14:23:17;4.87;;;3.60;;
11135;SDS011;5622;50.840;4.948;2022-08-19T14:25:45;4.73;;;3.30;;
11135;SDS011;5622;50.840;4.948;2022-08-19T14:28:12;4.17;;;3.77;;
11135;SDS011;5622;50.840;4.948;2022-08-19T14:30:41;4.10;;;3.23;;
11135;SDS011;5622;50.840;4.948;2022-08-19T14:33:09;3.90;;;3.17;;
11135;SDS011;5622;50.840;4.948;2022-08-19T14:35:36;4.80;;;3.43;;
11135;SDS011;5622;50.840;4.948;2022-08-19T14:38:04;5.43;;;3.10;;
11135;SDS011;5622;50.840;4.948;2022-08-19T14:40:32;3.13;;;2.93;;
11135;SDS011;5622;50.840;4.948;2022-08-19T14:43:00;4.57;;;3.00;;
11135;SDS011;5622;50.840;4.948;2022-08-19T14:45:29;2.77;;;2.27;;
11135;SDS011;5622;50.840;4.948;2022-08-19T14:47:59;2.50;;;2.30;;
11135;SDS011;5622;50.840;4.948;2022-08-19T14:50:26;4.53;;;4.13;;
11135;SDS011;5622;50.840;4.948;2022-08-19T14:52:57;2.50;;;2.30;;
11135;SDS011;5622;50.840;4.948;2022-08-19T14:55:26;2.07;;;1.90;;
11135;SDS011;5622;50.840;4.948;2022-08-19T14:57:54;2.33;;;2.10;;
11135;SDS011;5622;50.840;4.948;2022-08-19T15:00:21;2.97;;;2.67;;
11135;SDS011;5622;50.840;4.948;2022-08-19T15:02:49;2.60;;;2.23;;
11135;SDS011;5622;50.840;4.948;2022-08-19T15:05:17;2.77;;;2.47;;
11135;SDS011;5622;50.840;4.948;2022-08-19T15:07:45;2.93;;;2.47;;